sensor_id;sensor_type;location;lat;lon;timestamp;pressure;altitude;pressure_sealevel;temperature;humidity
49341;BME280;35209;51.050;13.678;2023-07-30T00:03:46;152971.59;;;17.03;100.00
49341;BME280;35209;51.050;13.678;2023-07-30T00:08:48;152928.78;;;16.86;100.00
49341;BME280;35209;51.050;13.678;2023-07-30T00:13:50;152926.22;;;16.85;100.00
49341;BME280;35209;51.050;13.678;2023-07-30T00:18:52;152915.81;;;16.81;100.00
49341;BME280;35209;51.050;13.678;2023-07-30T00:23:53;152910.66;;;16.79;100.00
49341;BME280;35209;51.050;13.678;2023-07-30T00:28:55;152946.97;;;16.93;100.00
49341;BME280;35209;51.050;13.678;2023-07-30T00:33:57;152937.88;;;16.89;100.00
49341;BME280;35209;51.050;13.678;2023-07-30T00:38:58;152913.25;;;16.80;100.00
49341;BME280;35209;51.050;13.678;2023-07-30T00:44:00;152908.09;;;16.78;100.00
49341;BME280;35209;51.050;13.678;2023-07-30T00:49:02;152924.91;;;16.84;100.00
49341;BME280;35209;51.050;13.678;2023-07-30T00:54:04;152908.09;;;16.78;100.00
49341;BME280;35209;51.050;13.678;2023-07-30T00:59:06;152880.75;;;16.67;100.00
49341;BME280;35209;51.050;13.678;2023-07-30T01:04:08;152791.28;;;16.32;100.00
49341;BME280;35209;51.050;13.678;2023-07-30T01:09:11;152760.16;;;16.20;100.00
49341;BME280;35209;51.050;13.678;2023-07-30T01:14:13;152731.66;;;16.08;100.00
49341;BME280;35209;51.050;13.678;2023-07-30T01:19:16;152721.28;;;16.04;100.00
49341;BME280;35209;51.050;13.678;2023-07-30T01:24:17;152769.25;;;16.23;100.00
49341;BME280;35209;51.050;13.678;2023-07-30T01:29:26;152727.75;;;16.07;100.00
49341;BME280;35209;51.050;13.678;2023-07-30T01:34:30;152675.94;;;15.86;100.00
49341;BME280;35209;51.050;13.678;2023-07-30T01:39:37;152655.19;;;15.78;100.00
49341;BME280;35209;51.050;13.678;2023-07-30T01:44:41;152643.50;;;15.74;100.00
49341;BME280;35209;51.050;13.678;2023-07-30T01:49:43;152635.72;;;15.71;100.00
49341;BME280;35209;51.050;13.678;2023-07-30T01:54:44;152672.06;;;15.85;100.00
49341;BME280;35209;51.050;13.678;2023-07-30T01:59:46;152657.75;;;15.79;100.00
49341;BME280;35209;51.050;13.678;2023-07-30T02:04:48;152642.22;;;15.73;100.00
49341;BME280;35209;51.050;13.678;2023-07-30T02:09:50;152622.78;;;15.66;100.00
49341;BME280;35209;51.050;13.678;2023-07-30T02:14:52;152618.91;;;15.64;100.00
49341;BME280;35209;51.050;13.678;2023-07-30T02:19:54;152640.94;;;15.73;100.00
49341;BME280;35209;51.050;13.678;2023-07-30T02:24:56;152620.19;;;15.64;100.00
49341;BME280;35209;51.050;13.678;2023-07-30T02:29:58;152625.34;;;15.67;100.00
49341;BME280;35209;51.050;13.678;2023-07-30T02:35:00;152661.69;;;15.81;100.00
49341;BME280;35209;51.050;13.678;2023-07-30T02:40:02;152731.66;;;16.08;100.00
49341;BME280;35209;51.050;13.678;2023-07-30T02:45:06;152687.59;;;15.91;100.00
49341;BME280;35209;51.050;13.678;2023-07-30T02:50:08;152639.66;;;15.72;100.00
49341;BME280;35209;51.050;13.678;2023-07-30T02:55:10;152647.38;;;15.75;100.00
49341;BME280;35209;51.050;13.678;2023-07-30T03:00:12;152672.06;;;15.85;100.00
49341;BME280;35209;51.050;13.678;2023-07-30T03:05:14;152673.34;;;15.85;100.00
49341;BME280;35209;51.050;13.678;2023-07-30T03:10:18;152758.88;;;16.19;100.00
49341;BME280;35209;51.050;13.678;2023-07-30T03:15:20;152808.16;;;16.38;100.00
49341;BME280;35209;51.050;13.678;2023-07-30T03:20:22;152756.28;;;16.18;100.00
49341;BME280;35209;51.050;13.678;2023-07-30T03:25:28;152765.38;;;16.22;100.00
49341;BME280;35209;51.050;13.678;2023-07-30T03:30:30;152843.19;;;16.52;100.00
49341;BME280;35209;51.050;13.678;2023-07-30T03:35:32;152773.16;;;16.25;100.00
49341;BME280;35209;51.050;13.678;2023-07-30T03:40:34;152815.91;;;16.42;100.00
49341;BME280;35209;51.050;13.678;2023-07-30T03:45:36;152739.47;;;16.11;100.00
49341;BME280;35209;51.050;13.678;2023-07-30T03:50:38;152716.06;;;16.02;100.00
49341;BME280;35209;51.050;13.678;2023-07-30T03:55:40;152721.28;;;16.04;100.00
49341;BME280;35209;51.050;13.678;2023-07-30T04:00:42;152773.16;;;16.25;100.00
49341;BME280;35209;51.050;13.678;2023-07-30T04:05:44;152755.00;;;16.18;100.00
49341;BME280;35209;51.050;13.678;2023-07-30T04:10:45;152856.13;;;16.57;100.00
49341;BME280;35209;51.050;13.678;2023-07-30T04:15:48;152780.91;;;16.28;100.00
49341;BME280;35209;51.050;13.678;2023-07-30T04:20:50;152783.50;;;16.29;100.00
49341;BME280;35209;51.050;13.678;2023-07-30T04:25:52;152857.44;;;16.58;100.00
49341;BME280;35209;51.050;13.678;2023-07-30T04:30:53;152910.66;;;16.79;100.00
49341;BME280;35209;51.050;13.678;2023-07-30T04:35:55;152848.34;;;16.54;100.00
49341;BME280;35209;51.050;13.678;2023-07-30T04:40:58;152782.19;;;16.28;100.00
49341;BME280;35209;51.050;13.678;2023-07-30T04:46:01;152827.59;;;16.46;100.00
49341;BME280;35209;51.050;13.678;2023-07-30T04:51:05;152895.06;;;16.73;100.00
49341;BME280;35209;51.050;13.678;2023-07-30T04:56:07;152837.97;;;16.50;100.00
49341;BME280;35209;51.050;13.678;2023-07-30T05:01:09;152880.75;;;16.67;100.00
49341;BME280;35209;51.050;13.678;2023-07-30T05:06:10;152980.69;;;17.06;100.00
49341;BME280;35209;51.050;13.678;2023-07-30T05:11:12;153036.47;;;17.28;100.00
49341;BME280;35209;51.050;13.678;2023-07-30T05:16:14;153054.66;;;17.35;100.00
49341;BME280;35209;51.050;13.678;2023-07-30T05:21:16;153144.16;;;17.71;100.00
49341;BME280;35209;51.050;13.678;2023-07-30T05:26:18;153254.56;;;18.14;100.00
49341;BME280;35209;51.050;13.678;2023-07-30T05:31:20;153258.47;;;18.15;100.00
49341;BME280;35209;51.050;13.678;2023-07-30T05:36:22;153237.69;;;18.07;100.00
49341;BME280;35209;51.050;13.678;2023-07-30T05:41:24;153210.41;;;17.97;100.00
49341;BME280;35209;51.050;13.678;2023-07-30T05:46:26;153249.38;;;18.12;100.00
49341;BME280;35209;51.050;13.678;2023-07-30T05:51:28;153257.19;;;18.15;100.00
49341;BME280;35209;51.050;13.678;2023-07-30T05:56:30;153237.69;;;18.07;100.00
49341;BME280;35209;51.050;13.678;2023-07-30T06:01:32;153235.13;;;18.06;100.00
49341;BME280;35209;51.050;13.678;2023-07-30T06:06:34;153214.34;;;17.98;100.00
49341;BME280;35209;51.050;13.678;2023-07-30T06:11:35;153311.69;;;18.36;100.00
49341;BME280;35209;51.050;13.678;2023-07-30T06:16:37;153340.25;;;18.48;100.00
49341;BME280;35209;51.050;13.678;2023-07-30T06:21:40;153393.53;;;18.69;100.00
49341;BME280;35209;51.050;13.678;2023-07-30T06:26:41;153435.09;;;18.85;100.00
49341;BME280;35209;51.050;13.678;2023-07-30T06:31:43;153583.19;;;19.43;100.00
49341;BME280;35209;51.050;13.678;2023-07-30T06:36:45;153511.75;;;19.15;100.00
49341;BME280;35209;51.050;13.678;2023-07-30T06:41:47;153536.41;;;19.25;100.00
49341;BME280;35209;51.050;13.678;2023-07-30T06:46:49;153572.84;;;19.39;100.00
49341;BME280;35209;51.050;13.678;2023-07-30T06:51:51;153758.72;;;20.12;100.00
49341;BME280;35209;51.050;13.678;2023-07-30T06:56:53;153797.69;;;20.27;99.13
49341;BME280;35209;51.050;13.678;2023-07-30T07:01:55;153878.38;;;20.59;97.14
49341;BME280;35209;51.050;13.678;2023-07-30T07:06:57;153873.16;;;20.57;95.42
49341;BME280;35209;51.050;13.678;2023-07-30T07:11:59;153926.50;;;20.78;97.78
49341;BME280;35209;51.050;13.678;2023-07-30T07:17:01;154053.94;;;21.28;89.55
49341;BME280;35209;51.050;13.678;2023-07-30T07:22:04;154139.88;;;21.61;85.24
49341;BME280;35209;51.050;13.678;2023-07-30T07:27:06;154178.91;;;21.77;86.35
49341;BME280;35209;51.050;13.678;2023-07-30T07:32:11;154292.19;;;22.21;80.68
49341;BME280;35209;51.050;13.678;2023-07-30T07:37:13;154341.69;;;22.40;77.28
49341;BME280;35209;51.050;13.678;2023-07-30T07:42:17;154405.44;;;22.65;78.48
49341;BME280;35209;51.050;13.678;2023-07-30T07:47:19;154349.47;;;22.44;76.70
49341;BME280;35209;51.050;13.678;2023-07-30T07:52:21;154337.75;;;22.39;75.47
49341;BME280;35209;51.050;13.678;2023-07-30T07:57:22;154306.50;;;22.27;74.37
49341;BME280;35209;51.050;13.678;2023-07-30T08:02:24;154242.69;;;22.02;76.78
49341;BME280;35209;51.050;13.678;2023-07-30T08:07:27;154310.44;;;22.28;78.60
49341;BME280;35209;51.050;13.678;2023-07-30T08:12:31;154425.00;;;22.73;74.26
49341;BME280;35209;51.050;13.678;2023-07-30T08:17:34;154471.91;;;22.91;70.88
49341;BME280;35209;51.050;13.678;2023-07-30T08:22:36;154488.88;;;22.98;68.66
49341;BME280;35209;51.050;13.678;2023-07-30T08:27:38;154414.56;;;22.69;70.17
49341;BME280;35209;51.050;13.678;2023-07-30T08:32:40;154415.88;;;22.70;71.85
49341;BME280;35209;51.050;13.678;2023-07-30T08:37:43;154533.16;;;23.15;69.46
49341;BME280;35209;51.050;13.678;2023-07-30T08:42:45;154501.88;;;23.03;68.02
49341;BME280;35209;51.050;13.678;2023-07-30T08:47:47;154458.84;;;22.86;68.93
49341;BME280;35209;51.050;13.678;2023-07-30T08:52:49;154572.22;;;23.31;68.26
49341;BME280;35209;51.050;13.678;2023-07-30T08:57:51;154607.38;;;23.45;67.36
49341;BME280;35209;51.050;13.678;2023-07-30T09:02:56;154686.91;;;23.76;66.60
49341;BME280;35209;51.050;13.678;2023-07-30T09:08:00;154726.00;;;23.91;64.43
49341;BME280;35209;51.050;13.678;2023-07-30T09:13:02;154766.38;;;24.07;64.60
49341;BME280;35209;51.050;13.678;2023-07-30T09:18:05;154842.00;;;24.36;61.66
49341;BME280;35209;51.050;13.678;2023-07-30T09:23:09;154903.28;;;24.60;60.72
49341;BME280;35209;51.050;13.678;2023-07-30T09:28:11;154785.94;;;24.14;65.17
49341;BME280;35209;51.050;13.678;2023-07-30T09:33:18;154870.69;;;24.48;64.69
49341;BME280;35209;51.050;13.678;2023-07-30T09:38:20;154929.41;;;24.71;60.93
49341;BME280;35209;51.050;13.678;2023-07-30T09:43:28;154929.41;;;24.71;62.02
49341;BME280;35209;51.050;13.678;2023-07-30T09:48:31;154956.75;;;24.81;61.31
49341;BME280;35209;51.050;13.678;2023-07-30T09:53:34;154985.47;;;24.92;58.70
49341;BME280;35209;51.050;13.678;2023-07-30T09:58:39;155020.66;;;25.06;58.04
49341;BME280;35209;51.050;13.678;2023-07-30T10:03:44;155024.59;;;25.08;58.79
49341;BME280;35209;51.050;13.678;2023-07-30T10:08:46;154971.09;;;24.87;57.90
49341;BME280;35209;51.050;13.678;2023-07-30T10:13:48;154928.03;;;24.70;58.23
49341;BME280;35209;51.050;13.678;2023-07-30T10:18:56;154913.72;;;24.64;58.15
49341;BME280;35209;51.050;13.678;2023-07-30T10:24:03;154806.81;;;24.23;62.33
49341;BME280;35209;51.050;13.678;2023-07-30T10:29:19;154882.41;;;24.52;59.39
49341;BME280;35209;51.050;13.678;2023-07-30T10:34:26;154810.69;;;24.24;58.81
49341;BME280;35209;51.050;13.678;2023-07-30T10:39:29;154787.25;;;24.15;60.55
49341;BME280;35209;51.050;13.678;2023-07-30T10:44:32;154822.44;;;24.29;57.71
49341;BME280;35209;51.050;13.678;2023-07-30T10:49:38;154904.59;;;24.61;59.58
49341;BME280;35209;51.050;13.678;2023-07-30T10:54:42;155051.97;;;25.19;55.23
49341;BME280;35209;51.050;13.678;2023-07-30T10:59:46;155354.69;;;26.37;51.60
49341;BME280;35209;51.050;13.678;2023-07-30T11:04:48;155528.31;;;27.05;48.89
49341;BME280;35209;51.050;13.678;2023-07-30T11:09:59;155625.03;;;27.42;46.63
49341;BME280;35209;51.050;13.678;2023-07-30T11:15:03;155524.44;;;27.03;47.75
49341;BME280;35209;51.050;13.678;2023-07-30T11:20:06;155579.31;;;27.25;44.07
49341;BME280;35209;51.050;13.678;2023-07-30T11:25:19;155597.63;;;27.32;45.47
49341;BME280;35209;51.050;13.678;2023-07-30T11:30:22;155643.31;;;27.50;43.94
49341;BME280;35209;51.050;13.678;2023-07-30T11:35:24;155749.16;;;27.91;44.16
49341;BME280;35209;51.050;13.678;2023-07-30T11:40:26;155820.97;;;28.19;41.72
49341;BME280;35209;51.050;13.678;2023-07-30T11:45:28;155779.22;;;28.03;40.49
49341;BME280;35209;51.050;13.678;2023-07-30T11:50:45;155832.75;;;28.24;41.47
49341;BME280;35209;51.050;13.678;2023-07-30T11:55:47;155840.59;;;28.27;40.27
49341;BME280;35209;51.050;13.678;2023-07-30T12:00:49;155932.09;;;28.62;40.48
49341;BME280;35209;51.050;13.678;2023-07-30T12:05:51;155832.75;;;28.24;38.58
49341;BME280;35209;51.050;13.678;2023-07-30T12:10:53;155831.44;;;28.23;38.91
49341;BME280;35209;51.050;13.678;2023-07-30T12:15:57;155891.63;;;28.47;37.34
49341;BME280;35209;51.050;13.678;2023-07-30T12:20:59;155898.13;;;28.49;36.65
49341;BME280;35209;51.050;13.678;2023-07-30T12:26:02;155878.50;;;28.41;37.52
49341;BME280;35209;51.050;13.678;2023-07-30T12:31:05;155742.59;;;27.88;37.36
49341;BME280;35209;51.050;13.678;2023-07-30T12:36:08;155704.75;;;27.74;40.07
49341;BME280;35209;51.050;13.678;2023-07-30T12:41:09;155695.53;;;27.70;38.43
49341;BME280;35209;51.050;13.678;2023-07-30T12:46:12;155601.53;;;27.33;41.09
49341;BME280;35209;51.050;13.678;2023-07-30T12:51:14;155585.88;;;27.27;40.78
49341;BME280;35209;51.050;13.678;2023-07-30T12:56:15;155532.28;;;27.06;40.73
49341;BME280;35209;51.050;13.678;2023-07-30T13:01:17;155474.84;;;26.84;41.88
49341;BME280;35209;51.050;13.678;2023-07-30T13:06:20;155438.31;;;26.70;39.63
49341;BME280;35209;51.050;13.678;2023-07-30T13:11:22;155418.72;;;26.62;41.82
49341;BME280;35209;51.050;13.678;2023-07-30T13:16:24;155362.53;;;26.40;41.13
49341;BME280;35209;51.050;13.678;2023-07-30T13:21:26;155417.41;;;26.61;42.04
49341;BME280;35209;51.050;13.678;2023-07-30T13:26:28;155484.00;;;26.87;41.05
49341;BME280;35209;51.050;13.678;2023-07-30T13:31:30;155547.97;;;27.12;41.67
49341;BME280;35209;51.050;13.678;2023-07-30T13:36:32;155564.97;;;27.19;41.98
49341;BME280;35209;51.050;13.678;2023-07-30T13:41:34;155478.75;;;26.85;41.18
49341;BME280;35209;51.050;13.678;2023-07-30T13:46:40;155461.78;;;26.79;39.80
49341;BME280;35209;51.050;13.678;2023-07-30T13:51:42;155512.69;;;26.99;39.02
49341;BME280;35209;51.050;13.678;2023-07-30T13:56:44;155520.53;;;27.02;39.39
49341;BME280;35209;51.050;13.678;2023-07-30T14:01:46;155482.63;;;26.87;40.21
49341;BME280;35209;51.050;13.678;2023-07-30T14:06:48;155469.59;;;26.82;39.22
49341;BME280;35209;51.050;13.678;2023-07-30T14:11:50;155461.78;;;26.79;39.68
49341;BME280;35209;51.050;13.678;2023-07-30T14:16:52;155619.81;;;27.40;39.78
49341;BME280;35209;51.050;13.678;2023-07-30T14:21:56;155574.13;;;27.23;39.96
49341;BME280;35209;51.050;13.678;2023-07-30T14:26:58;155500.94;;;26.94;39.11
49341;BME280;35209;51.050;13.678;2023-07-30T14:32:00;155315.56;;;26.22;41.12
49341;BME280;35209;51.050;13.678;2023-07-30T14:37:02;155202.06;;;25.77;41.66
49341;BME280;35209;51.050;13.678;2023-07-30T14:42:04;155128.94;;;25.49;41.78
49341;BME280;35209;51.050;13.678;2023-07-30T14:47:06;155032.44;;;25.11;43.33
49341;BME280;35209;51.050;13.678;2023-07-30T14:52:10;154971.09;;;24.87;44.19
49341;BME280;35209;51.050;13.678;2023-07-30T14:57:11;154932.00;;;24.72;48.98
49341;BME280;35209;51.050;13.678;2023-07-30T15:02:13;154835.44;;;24.34;50.25
49341;BME280;35209;51.050;13.678;2023-07-30T15:07:15;154697.31;;;23.80;58.22
49341;BME280;35209;51.050;13.678;2023-07-30T15:12:17;154311.72;;;22.29;69.65
49341;BME280;35209;51.050;13.678;2023-07-30T15:17:19;153791.22;;;20.25;94.85
49341;BME280;35209;51.050;13.678;2023-07-30T15:22:21;153519.56;;;19.18;100.00
49341;BME280;35209;51.050;13.678;2023-07-30T15:27:23;153474.09;;;19.00;100.00
49341;BME280;35209;51.050;13.678;2023-07-30T15:32:28;153465.00;;;18.97;100.00
49341;BME280;35209;51.050;13.678;2023-07-30T15:37:30;153523.44;;;19.20;100.00
49341;BME280;35209;51.050;13.678;2023-07-30T15:42:33;153529.94;;;19.22;100.00
49341;BME280;35209;51.050;13.678;2023-07-30T15:47:35;153552.03;;;19.31;100.00
49341;BME280;35209;51.050;13.678;2023-07-30T15:52:37;153592.28;;;19.47;100.00
49341;BME280;35209;51.050;13.678;2023-07-30T15:57:39;153540.34;;;19.26;100.00
49341;BME280;35209;51.050;13.678;2023-07-30T16:02:42;153597.50;;;19.49;100.00
49341;BME280;35209;51.050;13.678;2023-07-30T16:07:47;153559.81;;;19.34;100.00
49341;BME280;35209;51.050;13.678;2023-07-30T16:12:52;153583.19;;;19.43;100.00
49341;BME280;35209;51.050;13.678;2023-07-30T16:17:53;153578.00;;;19.41;100.00
49341;BME280;35209;51.050;13.678;2023-07-30T16:22:56;153609.22;;;19.53;100.00
49341;BME280;35209;51.050;13.678;2023-07-30T16:27:57;153588.41;;;19.45;100.00
49341;BME280;35209;51.050;13.678;2023-07-30T16:32:59;153659.91;;;19.73;100.00
49341;BME280;35209;51.050;13.678;2023-07-30T16:38:01;153610.50;;;19.54;100.00
49341;BME280;35209;51.050;13.678;2023-07-30T16:43:02;153650.81;;;19.70;100.00
49341;BME280;35209;51.050;13.678;2023-07-30T16:48:04;153627.41;;;19.60;100.00
49341;BME280;35209;51.050;13.678;2023-07-30T16:53:06;153688.53;;;19.84;100.00
49341;BME280;35209;51.050;13.678;2023-07-30T16:58:08;153639.13;;;19.65;100.00
49341;BME280;35209;51.050;13.678;2023-07-30T17:03:10;153592.28;;;19.47;100.00
49341;BME280;35209;51.050;13.678;2023-07-30T17:08:12;153520.84;;;19.19;100.00
49341;BME280;35209;51.050;13.678;2023-07-30T17:13:15;153457.19;;;18.94;100.00
49341;BME280;35209;51.050;13.678;2023-07-30T17:18:16;153405.25;;;18.73;100.00
49341;BME280;35209;51.050;13.678;2023-07-30T17:23:18;153357.13;;;18.54;100.00
49341;BME280;35209;51.050;13.678;2023-07-30T17:28:20;153283.13;;;18.25;100.00
49341;BME280;35209;51.050;13.678;2023-07-30T17:33:22;153242.88;;;18.09;100.00
49341;BME280;35209;51.050;13.678;2023-07-30T17:38:24;153203.94;;;17.94;100.00
49341;BME280;35209;51.050;13.678;2023-07-30T17:43:26;153177.97;;;17.84;100.00
49341;BME280;35209;51.050;13.678;2023-07-30T17:48:28;153167.63;;;17.80;100.00
49341;BME280;35209;51.050;13.678;2023-07-30T17:53:30;153196.16;;;17.91;100.00
49341;BME280;35209;51.050;13.678;2023-07-30T17:58:31;153210.41;;;17.97;100.00
49341;BME280;35209;51.050;13.678;2023-07-30T18:03:34;153188.34;;;17.88;100.00
49341;BME280;35209;51.050;13.678;2023-07-30T18:08:36;153180.59;;;17.85;100.00
49341;BME280;35209;51.050;13.678;2023-07-30T18:13:38;153175.38;;;17.83;100.00
49341;BME280;35209;51.050;13.678;2023-07-30T18:18:39;153167.63;;;17.80;100.00
49341;BME280;35209;51.050;13.678;2023-07-30T18:23:41;153145.50;;;17.71;100.00
49341;BME280;35209;51.050;13.678;2023-07-30T18:28:43;153187.06;;;17.87;100.00
49341;BME280;35209;51.050;13.678;2023-07-30T18:33:47;153183.19;;;17.86;96.94
49341;BME280;35209;51.050;13.678;2023-07-30T18:38:49;153126.03;;;17.63;98.92
49341;BME280;35209;51.050;13.678;2023-07-30T18:43:51;153076.69;;;17.44;100.00
49341;BME280;35209;51.050;13.678;2023-07-30T18:48:52;153054.66;;;17.35;100.00
49341;BME280;35209;51.050;13.678;2023-07-30T18:53:56;152994.94;;;17.12;100.00
49341;BME280;35209;51.050;13.678;2023-07-30T18:58:58;152945.69;;;16.93;100.00
49341;BME280;35209;51.050;13.678;2023-07-30T19:04:01;152944.38;;;16.92;100.00
49341;BME280;35209;51.050;13.678;2023-07-30T19:09:03;152923.63;;;16.84;100.00
49341;BME280;35209;51.050;13.678;2023-07-30T19:14:05;152885.97;;;16.69;100.00
49341;BME280;35209;51.050;13.678;2023-07-30T19:19:07;152867.81;;;16.62;100.00
49341;BME280;35209;51.050;13.678;2023-07-30T19:24:10;152928.78;;;16.86;96.03
49341;BME280;35209;51.050;13.678;2023-07-30T19:29:12;152884.63;;;16.69;99.01
49341;BME280;35209;51.050;13.678;2023-07-30T19:34:15;152924.91;;;16.84;94.87
49341;BME280;35209;51.050;13.678;2023-07-30T19:39:17;152922.34;;;16.83;94.22
49341;BME280;35209;51.050;13.678;2023-07-30T19:44:19;152895.06;;;16.73;94.43
49341;BME280;35209;51.050;13.678;2023-07-30T19:49:21;152910.66;;;16.79;92.40
49341;BME280;35209;51.050;13.678;2023-07-30T19:54:25;152915.81;;;16.81;91.40
49341;BME280;35209;51.050;13.678;2023-07-30T19:59:27;152843.19;;;16.52;95.98
49341;BME280;35209;51.050;13.678;2023-07-30T20:04:29;152856.13;;;16.57;91.69
49341;BME280;35209;51.050;13.678;2023-07-30T20:09:31;152902.88;;;16.76;89.24
49341;BME280;35209;51.050;13.678;2023-07-30T20:14:33;152866.50;;;16.61;92.91
49341;BME280;35209;51.050;13.678;2023-07-30T20:19:34;152809.47;;;16.39;95.34
49341;BME280;35209;51.050;13.678;2023-07-30T20:24:36;152828.88;;;16.47;93.38
49341;BME280;35209;51.050;13.678;2023-07-30T20:29:38;152828.88;;;16.47;92.61
49341;BME280;35209;51.050;13.678;2023-07-30T20:34:40;152747.19;;;16.14;94.28
49341;BME280;35209;51.050;13.678;2023-07-30T20:39:42;152751.13;;;16.16;95.34
49341;BME280;35209;51.050;13.678;2023-07-30T20:44:44;152700.53;;;15.96;96.43
49341;BME280;35209;51.050;13.678;2023-07-30T20:49:46;152662.97;;;15.81;97.01
49341;BME280;35209;51.050;13.678;2023-07-30T20:54:47;152648.69;;;15.76;92.32
49341;BME280;35209;51.050;13.678;2023-07-30T20:59:49;152669.41;;;15.84;94.53
49341;BME280;35209;51.050;13.678;2023-07-30T21:04:52;152672.06;;;15.85;93.45
49341;BME280;35209;51.050;13.678;2023-07-30T21:09:54;152727.75;;;16.07;88.49
49341;BME280;35209;51.050;13.678;2023-07-30T21:14:56;152800.38;;;16.35;82.61
49341;BME280;35209;51.050;13.678;2023-07-30T21:19:58;152857.44;;;16.58;81.19
49341;BME280;35209;51.050;13.678;2023-07-30T21:25:00;152915.81;;;16.81;77.52
49341;BME280;35209;51.050;13.678;2023-07-30T21:30:02;152976.81;;;17.05;75.68
49341;BME280;35209;51.050;13.678;2023-07-30T21:35:04;152980.69;;;17.06;74.70
49341;BME280;35209;51.050;13.678;2023-07-30T21:40:06;152965.16;;;17.00;75.02
49341;BME280;35209;51.050;13.678;2023-07-30T21:45:08;153004.03;;;17.15;72.43
49341;BME280;35209;51.050;13.678;2023-07-30T21:50:10;153001.47;;;17.14;72.53
49341;BME280;35209;51.050;13.678;2023-07-30T21:55:12;152993.66;;;17.11;71.88
49341;BME280;35209;51.050;13.678;2023-07-30T22:00:14;153001.47;;;17.14;71.76
49341;BME280;35209;51.050;13.678;2023-07-30T22:05:16;153022.22;;;17.23;70.92
49341;BME280;35209;51.050;13.678;2023-07-30T22:10:18;153014.44;;;17.20;71.17
49341;BME280;35209;51.050;13.678;2023-07-30T22:15:21;153033.91;;;17.27;70.95
49341;BME280;35209;51.050;13.678;2023-07-30T22:20:23;153032.63;;;17.27;70.98
49341;BME280;35209;51.050;13.678;2023-07-30T22:25:24;153017.00;;;17.21;70.36
49341;BME280;35209;51.050;13.678;2023-07-30T22:30:26;153014.44;;;17.20;70.80
49341;BME280;35209;51.050;13.678;2023-07-30T22:35:28;153014.44;;;17.20;70.33
49341;BME280;35209;51.050;13.678;2023-07-30T22:40:30;152965.16;;;17.00;71.79
49341;BME280;35209;51.050;13.678;2023-07-30T22:45:31;152979.41;;;17.06;71.50
49341;BME280;35209;51.050;13.678;2023-07-30T22:50:33;152953.47;;;16.96;71.53
49341;BME280;35209;51.050;13.678;2023-07-30T22:55:35;152944.38;;;16.92;71.91
49341;BME280;35209;51.050;13.678;2023-07-30T23:00:37;152935.28;;;16.88;71.96
49341;BME280;35209;51.050;13.678;2023-07-30T23:05:39;152937.88;;;16.89;72.41
49341;BME280;35209;51.050;13.678;2023-07-30T23:10:40;152941.81;;;16.91;71.36
49341;BME280;35209;51.050;13.678;2023-07-30T23:15:42;152926.22;;;16.85;72.44
49341;BME280;35209;51.050;13.678;2023-07-30T23:20:44;152923.63;;;16.84;71.42
49341;BME280;35209;51.050;13.678;2023-07-30T23:25:45;152918.41;;;16.82;71.24
49341;BME280;35209;51.050;13.678;2023-07-30T23:30:47;152944.38;;;16.92;70.09
49341;BME280;35209;51.050;13.678;2023-07-30T23:35:49;152957.34;;;16.97;69.49
49341;BME280;35209;51.050;13.678;2023-07-30T23:40:51;152963.81;;;17.00;69.01
49341;BME280;35209;51.050;13.678;2023-07-30T23:45:53;152958.66;;;16.98;68.56
49341;BME280;35209;51.050;13.678;2023-07-30T23:50:55;152971.59;;;17.03;68.63
49341;BME280;35209;51.050;13.678;2023-07-30T23:56:06;152928.78;;;16.86;69.26
